sensor_id;sensor_type;location;lat;lon;timestamp;pressure;altitude;pressure_sealevel;temperature;humidity
33191;BME280;19554;42.652;23.364;2023-11-21T00:00:36;94430.66;;;6.64;62.93
33191;BME280;19554;42.652;23.364;2023-11-21T00:03:01;94390.91;;;6.44;62.67
33191;BME280;19554;42.652;23.364;2023-11-21T00:05:27;94443.91;;;6.79;62.74
33191;BME280;19554;42.652;23.364;2023-11-21T00:07:52;94462.44;;;6.89;62.19
33191;BME280;19554;42.652;23.364;2023-11-21T00:10:18;94457.44;;;6.88;61.60
33191;BME280;19554;42.652;23.364;2023-11-21T00:12:43;94449.72;;;6.76;61.24
33191;BME280;19554;42.652;23.364;2023-11-21T00:15:09;94461.41;;;6.80;61.62
33191;BME280;19554;42.652;23.364;2023-11-21T00:17:36;94457.16;;;6.79;62.04
33191;BME280;19554;42.652;23.364;2023-11-21T00:20:03;94423.75;;;6.58;62.57
33191;BME280;19554;42.652;23.364;2023-11-21T00:22:35;94460.88;;;6.78;63.37
33191;BME280;19554;42.652;23.364;2023-11-21T00:25:01;94466.16;;;6.83;63.34
33191;BME280;19554;42.652;23.364;2023-11-21T00:27:28;94457.69;;;6.86;62.93
33191;BME280;19554;42.652;23.364;2023-11-21T00:29:54;94393.53;;;6.49;62.89
33191;BME280;19554;42.652;23.364;2023-11-21T00:32:19;94451.03;;;6.89;63.37
33191;BME280;19554;42.652;23.364;2023-11-21T00:34:44;94452.91;;;6.88;63.72
33191;BME280;19554;42.652;23.364;2023-11-21T00:37:10;94450.25;;;6.88;63.56
33191;BME280;19554;42.652;23.364;2023-11-21T00:39:35;94443.91;;;6.84;63.54
33191;BME280;19554;42.652;23.364;2023-11-21T00:42:01;94448.94;;;6.81;63.53
33191;BME280;19554;42.652;23.364;2023-11-21T00:44:26;94447.34;;;6.80;63.74
33191;BME280;19554;42.652;23.364;2023-11-21T00:46:51;94407.31;;;6.46;63.99
33191;BME280;19554;42.652;23.364;2023-11-21T00:49:17;94452.38;;;6.66;64.17
33191;BME280;19554;42.652;23.364;2023-11-21T00:51:42;94463.53;;;6.63;64.36
33191;BME280;19554;42.652;23.364;2023-11-21T00:54:08;94459.31;;;6.57;64.53
33191;BME280;19554;42.652;23.364;2023-11-21T00:56:33;94378.69;;;6.12;64.89
33191;BME280;19554;42.652;23.364;2023-11-21T00:58:59;94439.16;;;6.61;64.94
33191;BME280;19554;42.652;23.364;2023-11-21T01:01:24;94439.13;;;6.66;64.95
33191;BME280;19554;42.652;23.364;2023-11-21T01:03:50;94409.97;;;6.56;64.96
33191;BME280;19554;42.652;23.364;2023-11-21T01:06:16;94433.31;;;6.74;64.72
33191;BME280;19554;42.652;23.364;2023-11-21T01:08:41;94432.78;;;6.77;64.29
33191;BME280;19554;42.652;23.364;2023-11-21T01:11:07;94439.66;;;6.78;63.98
33191;BME280;19554;42.652;23.364;2023-11-21T01:13:41;94437.25;;;6.77;64.03
33191;BME280;19554;42.652;23.364;2023-11-21T01:16:08;94351.16;;;6.13;64.16
33191;BME280;19554;42.652;23.364;2023-11-21T01:18:33;94437.00;;;6.63;64.00
33191;BME280;19554;42.652;23.364;2023-11-21T01:21:00;94445.53;;;6.60;63.91
33191;BME280;19554;42.652;23.364;2023-11-21T01:23:26;94373.41;;;6.12;64.30
33191;BME280;19554;42.652;23.364;2023-11-21T01:25:52;94395.16;;;6.14;64.23
33191;BME280;19554;42.652;23.364;2023-11-21T01:28:18;94440.72;;;6.41;65.57
33191;BME280;19554;42.652;23.364;2023-11-21T01:30:43;94444.97;;;6.48;65.88
33191;BME280;19554;42.652;23.364;2023-11-21T01:33:09;94435.44;;;6.47;65.78
33191;BME280;19554;42.652;23.364;2023-11-21T01:35:35;94432.78;;;6.36;66.46
33191;BME280;19554;42.652;23.364;2023-11-21T01:38:01;94376.59;;;6.04;65.85
33191;BME280;19554;42.652;23.364;2023-11-21T01:40:26;94435.69;;;6.35;65.85
33191;BME280;19554;42.652;23.364;2023-11-21T01:42:54;94449.75;;;6.30;65.20
33191;BME280;19554;42.652;23.364;2023-11-21T01:45:19;94440.72;;;6.21;64.82
33191;BME280;19554;42.652;23.364;2023-11-21T01:47:45;94441.78;;;6.15;64.21
33191;BME280;19554;42.652;23.364;2023-11-21T01:50:15;94422.44;;;5.99;64.71
33191;BME280;19554;42.652;23.364;2023-11-21T01:52:46;94432.50;;;6.07;65.36
33191;BME280;19554;42.652;23.364;2023-11-21T01:55:14;94426.41;;;6.02;66.66
33191;BME280;19554;42.652;23.364;2023-11-21T01:57:43;94419.97;;;5.87;66.43
33191;BME280;19554;42.652;23.364;2023-11-21T02:00:09;94431.63;;;5.86;66.78
33191;BME280;19554;42.652;23.364;2023-11-21T02:02:45;94436.63;;;5.67;67.21
33191;BME280;19554;42.652;23.364;2023-11-21T02:05:11;94433.97;;;5.62;68.37
33191;BME280;19554;42.652;23.364;2023-11-21T02:07:41;94418.34;;;5.61;68.33
33191;BME280;19554;42.652;23.364;2023-11-21T02:10:08;94426.84;;;5.68;68.59
33191;BME280;19554;42.652;23.364;2023-11-21T02:12:34;94436.34;;;5.64;69.06
33191;BME280;19554;42.652;23.364;2023-11-21T02:15:05;94371.84;;;5.12;69.74
33191;BME280;19554;42.652;23.364;2023-11-21T02:17:37;94436.63;;;5.62;69.55
33191;BME280;19554;42.652;23.364;2023-11-21T02:20:03;94436.31;;;5.54;69.85
33191;BME280;19554;42.652;23.364;2023-11-21T02:22:34;94424.38;;;5.46;69.84
33191;BME280;19554;42.652;23.364;2023-11-21T02:25:03;94426.25;;;5.51;69.03
33191;BME280;19554;42.652;23.364;2023-11-21T02:27:28;94432.09;;;5.58;67.76
33191;BME280;19554;42.652;23.364;2023-11-21T02:29:54;94388.91;;;5.37;67.97
33191;BME280;19554;42.652;23.364;2023-11-21T02:32:19;94413.03;;;5.56;67.94
33191;BME280;19554;42.652;23.364;2023-11-21T02:34:48;94422.59;;;5.67;67.64
33191;BME280;19554;42.652;23.364;2023-11-21T02:37:13;94423.91;;;5.69;68.06
33191;BME280;19554;42.652;23.364;2023-11-21T02:39:39;94421.03;;;5.71;67.76
33191;BME280;19554;42.652;23.364;2023-11-21T02:42:04;94431.63;;;5.76;66.79
33191;BME280;19554;42.652;23.364;2023-11-21T02:44:30;94400.34;;;5.63;66.82
33191;BME280;19554;42.652;23.364;2023-11-21T02:46:55;94378.88;;;5.44;66.74
33191;BME280;19554;42.652;23.364;2023-11-21T02:49:22;94429.50;;;5.78;66.27
33191;BME280;19554;42.652;23.364;2023-11-21T02:51:48;94426.34;;;5.81;66.96
33191;BME280;19554;42.652;23.364;2023-11-21T02:54:13;94411.22;;;5.72;67.03
33191;BME280;19554;42.652;23.364;2023-11-21T02:56:39;94428.69;;;5.78;67.13
33191;BME280;19554;42.652;23.364;2023-11-21T02:59:05;94428.97;;;5.76;66.83
33191;BME280;19554;42.652;23.364;2023-11-21T03:01:30;94428.44;;;5.79;67.09
33191;BME280;19554;42.652;23.364;2023-11-21T03:03:56;94381.78;;;5.53;67.59
33191;BME280;19554;42.652;23.364;2023-11-21T03:06:22;94422.38;;;5.79;68.40
33191;BME280;19554;42.652;23.364;2023-11-21T03:08:48;94419.44;;;5.75;66.67
33191;BME280;19554;42.652;23.364;2023-11-21T03:11:14;94391.06;;;5.55;66.76
33191;BME280;19554;42.652;23.364;2023-11-21T03:13:42;94392.88;;;5.50;68.38
33191;BME280;19554;42.652;23.364;2023-11-21T03:16:09;94408.78;;;5.60;68.52
33191;BME280;19554;42.652;23.364;2023-11-21T03:18:35;94424.19;;;5.73;68.20
33191;BME280;19554;42.652;23.364;2023-11-21T03:21:01;94375.94;;;5.45;66.45
33191;BME280;19554;42.652;23.364;2023-11-21T03:23:26;94424.16;;;5.63;67.72
33191;BME280;19554;42.652;23.364;2023-11-21T03:25:52;94425.41;;;5.40;67.78
33191;BME280;19554;42.652;23.364;2023-11-21T03:28:17;94396.44;;;5.08;68.75
33191;BME280;19554;42.652;23.364;2023-11-21T03:30:43;94441.00;;;5.31;68.63
33191;BME280;19554;42.652;23.364;2023-11-21T03:33:08;94443.13;;;5.34;67.32
33191;BME280;19554;42.652;23.364;2023-11-21T03:35:34;94439.44;;;5.35;67.15
33191;BME280;19554;42.652;23.364;2023-11-21T03:37:59;94432.56;;;5.34;67.20
33191;BME280;19554;42.652;23.364;2023-11-21T03:40:24;94429.88;;;5.29;66.52
33191;BME280;19554;42.652;23.364;2023-11-21T03:42:50;94430.38;;;5.26;66.60
33191;BME280;19554;42.652;23.364;2023-11-21T03:45:16;94431.44;;;5.25;66.84
33191;BME280;19554;42.652;23.364;2023-11-21T03:47:42;94353.22;;;4.82;67.01
33191;BME280;19554;42.652;23.364;2023-11-21T03:50:07;94410.81;;;5.27;66.44
33191;BME280;19554;42.652;23.364;2023-11-21T03:52:34;94418.25;;;5.30;67.56
33191;BME280;19554;42.652;23.364;2023-11-21T03:55:03;94406.88;;;5.35;69.08
33191;BME280;19554;42.652;23.364;2023-11-21T03:57:29;94404.22;;;5.40;69.93
33191;BME280;19554;42.652;23.364;2023-11-21T03:59:54;94401.34;;;5.41;70.63
33191;BME280;19554;42.652;23.364;2023-11-21T04:02:20;94416.97;;;5.53;70.47
33191;BME280;19554;42.652;23.364;2023-11-21T04:04:45;94405.31;;;5.44;69.08
33191;BME280;19554;42.652;23.364;2023-11-21T04:07:11;94406.38;;;5.38;68.48
33191;BME280;19554;42.652;23.364;2023-11-21T04:09:39;94406.63;;;5.41;69.09
33191;BME280;19554;42.652;23.364;2023-11-21T04:12:04;94406.63;;;5.41;69.69
33191;BME280;19554;42.652;23.364;2023-11-21T04:14:30;94397.63;;;5.42;70.45
33191;BME280;19554;42.652;23.364;2023-11-21T04:16:56;94398.47;;;5.53;70.33
33191;BME280;19554;42.652;23.364;2023-11-21T04:19:21;94388.66;;;5.54;70.25
33191;BME280;19554;42.652;23.364;2023-11-21T04:21:47;94359.75;;;5.32;70.36
33191;BME280;19554;42.652;23.364;2023-11-21T04:24:12;94381.22;;;5.45;70.45
33191;BME280;19554;42.652;23.364;2023-11-21T04:26:38;94399.28;;;5.64;70.27
33191;BME280;19554;42.652;23.364;2023-11-21T04:29:03;94387.06;;;5.53;70.29
33191;BME280;19554;42.652;23.364;2023-11-21T04:31:32;94308.09;;;5.04;70.34
33191;BME280;19554;42.652;23.364;2023-11-21T04:33:58;94406.97;;;5.65;70.26
33191;BME280;19554;42.652;23.364;2023-11-21T04:36:24;94406.69;;;5.67;69.74
33191;BME280;19554;42.652;23.364;2023-11-21T04:38:49;94412.25;;;5.70;68.97
33191;BME280;19554;42.652;23.364;2023-11-21T04:41:15;94398.22;;;5.70;69.15
33191;BME280;19554;42.652;23.364;2023-11-21T04:43:40;94398.22;;;5.70;69.34
33191;BME280;19554;42.652;23.364;2023-11-21T04:46:07;94400.38;;;5.68;69.39
33191;BME280;19554;42.652;23.364;2023-11-21T04:48:33;94405.13;;;5.71;68.97
33191;BME280;19554;42.652;23.364;2023-11-21T04:50:58;94407.78;;;5.76;68.96
33191;BME280;19554;42.652;23.364;2023-11-21T04:53:24;94407.25;;;5.79;69.25
33191;BME280;19554;42.652;23.364;2023-11-21T04:55:49;94413.09;;;5.81;69.19
33191;BME280;19554;42.652;23.364;2023-11-21T04:58:15;94411.50;;;5.75;69.08
33191;BME280;19554;42.652;23.364;2023-11-21T05:00:40;94390.28;;;5.55;69.39
33191;BME280;19554;42.652;23.364;2023-11-21T05:03:07;94412.78;;;5.62;70.00
33191;BME280;19554;42.652;23.364;2023-11-21T05:05:33;94406.44;;;5.58;70.44
33191;BME280;19554;42.652;23.364;2023-11-21T05:07:59;94400.84;;;5.55;70.67
33191;BME280;19554;42.652;23.364;2023-11-21T05:10:25;94415.13;;;5.54;70.68
33191;BME280;19554;42.652;23.364;2023-11-21T05:12:50;94406.66;;;5.52;69.82
33191;BME280;19554;42.652;23.364;2023-11-21T05:15:16;94401.38;;;5.57;69.67
33191;BME280;19554;42.652;23.364;2023-11-21T05:17:45;94395.03;;;5.63;69.58
33191;BME280;19554;42.652;23.364;2023-11-21T05:20:11;94402.50;;;5.71;69.76
33191;BME280;19554;42.652;23.364;2023-11-21T05:22:40;94406.44;;;5.74;69.78
33191;BME280;19554;42.652;23.364;2023-11-21T05:25:06;94400.34;;;5.73;69.05
33191;BME280;19554;42.652;23.364;2023-11-21T05:27:33;94391.91;;;5.76;68.67
33191;BME280;19554;42.652;23.364;2023-11-21T05:30:01;94398.25;;;5.80;68.43
33191;BME280;19554;42.652;23.364;2023-11-21T05:32:27;94404.06;;;5.77;68.55
33191;BME280;19554;42.652;23.364;2023-11-21T05:34:53;94404.59;;;5.74;68.19
33191;BME280;19554;42.652;23.364;2023-11-21T05:37:18;94407.00;;;5.76;68.42
33191;BME280;19554;42.652;23.364;2023-11-21T05:39:44;94415.19;;;5.69;68.69
33191;BME280;19554;42.652;23.364;2023-11-21T05:42:09;94399.53;;;5.47;68.48
33191;BME280;19554;42.652;23.364;2023-11-21T05:44:36;94412.50;;;5.59;68.93
33191;BME280;19554;42.652;23.364;2023-11-21T05:47:02;94403.75;;;5.53;69.44
33191;BME280;19554;42.652;23.364;2023-11-21T05:49:28;94393.66;;;5.35;70.00
33191;BME280;19554;42.652;23.364;2023-11-21T05:51:54;94413.50;;;5.42;69.90
33191;BME280;19554;42.652;23.364;2023-11-21T05:54:20;94405.53;;;5.27;70.54
33191;BME280;19554;42.652;23.364;2023-11-21T05:56:45;94400.19;;;5.17;71.02
33191;BME280;19554;42.652;23.364;2023-11-21T05:59:12;94375.28;;;5.08;72.25
33191;BME280;19554;42.652;23.364;2023-11-21T06:01:37;94361.75;;;4.99;71.67
33191;BME280;19554;42.652;23.364;2023-11-21T06:04:04;94400.22;;;5.22;71.35
33191;BME280;19554;42.652;23.364;2023-11-21T06:06:30;94402.84;;;5.22;71.15
33191;BME280;19554;42.652;23.364;2023-11-21T06:08:56;94411.38;;;5.34;70.88
33191;BME280;19554;42.652;23.364;2023-11-21T06:11:22;94415.09;;;5.43;70.90
33191;BME280;19554;42.652;23.364;2023-11-21T06:13:47;94420.34;;;5.33;71.24
33191;BME280;19554;42.652;23.364;2023-11-21T06:16:13;94413.06;;;4.98;72.40
33191;BME280;19554;42.652;23.364;2023-11-21T06:18:41;94428.66;;;4.94;73.18
33191;BME280;19554;42.652;23.364;2023-11-21T06:21:09;94419.13;;;4.98;72.52
33191;BME280;19554;42.652;23.364;2023-11-21T06:23:35;94397.19;;;4.98;72.13
33191;BME280;19554;42.652;23.364;2023-11-21T06:26:00;94430.09;;;5.22;72.16
33191;BME280;19554;42.652;23.364;2023-11-21T06:28:26;94404.44;;;5.18;71.40
33191;BME280;19554;42.652;23.364;2023-11-21T06:30:51;94439.34;;;5.15;72.21
33191;BME280;19554;42.652;23.364;2023-11-21T06:33:18;94417.59;;;5.08;72.42
33191;BME280;19554;42.652;23.364;2023-11-21T06:35:44;94446.81;;;5.23;72.60
33191;BME280;19554;42.652;23.364;2023-11-21T06:38:10;94435.44;;;5.33;72.42
33191;BME280;19554;42.652;23.364;2023-11-21T06:40:35;94448.47;;;5.44;72.51
33191;BME280;19554;42.652;23.364;2023-11-21T06:43:01;94445.09;;;5.69;71.61
33191;BME280;19554;42.652;23.364;2023-11-21T06:45:27;94448.03;;;5.68;71.26
33191;BME280;19554;42.652;23.364;2023-11-21T06:47:52;94428.63;;;5.52;72.50
33191;BME280;19554;42.652;23.364;2023-11-21T06:50:18;94444.56;;;5.62;73.13
33191;BME280;19554;42.652;23.364;2023-11-21T06:52:43;94442.47;;;5.75;73.17
33191;BME280;19554;42.652;23.364;2023-11-21T06:55:09;94446.00;;;5.96;72.86
33191;BME280;19554;42.652;23.364;2023-11-21T06:57:35;94439.03;;;5.79;72.92
33191;BME280;19554;42.652;23.364;2023-11-21T07:00:00;94453.97;;;6.21;72.48
33191;BME280;19554;42.652;23.364;2023-11-21T07:02:26;94443.41;;;6.57;70.69
33191;BME280;19554;42.652;23.364;2023-11-21T07:04:51;94438.63;;;6.44;70.61
33191;BME280;19554;42.652;23.364;2023-11-21T07:07:18;94443.09;;;6.94;69.50
33191;BME280;19554;42.652;23.364;2023-11-21T07:09:44;94416.78;;;7.08;68.42
33191;BME280;19554;42.652;23.364;2023-11-21T07:12:10;94436.38;;;7.17;68.05
33191;BME280;19554;42.652;23.364;2023-11-21T07:14:36;94446.94;;;7.43;67.90
33191;BME280;19554;42.652;23.364;2023-11-21T07:17:04;94431.19;;;7.62;66.81
33191;BME280;19554;42.652;23.364;2023-11-21T07:19:29;94435.25;;;7.49;66.74
33191;BME280;19554;42.652;23.364;2023-11-21T07:21:55;94435.00;;;7.40;66.81
33191;BME280;19554;42.652;23.364;2023-11-21T07:24:20;94432.06;;;7.42;67.08
33191;BME280;19554;42.652;23.364;2023-11-21T07:26:47;94436.41;;;7.12;68.32
33191;BME280;19554;42.652;23.364;2023-11-21T07:29:13;94436.28;;;7.48;67.43
33191;BME280;19554;42.652;23.364;2023-11-21T07:31:38;94417.59;;;7.68;66.33
33191;BME280;19554;42.652;23.364;2023-11-21T07:34:04;94441.00;;;7.66;65.80
33191;BME280;19554;42.652;23.364;2023-11-21T07:36:30;94435.59;;;7.87;65.67
33191;BME280;19554;42.652;23.364;2023-11-21T07:38:56;94427.91;;;7.80;65.38
33191;BME280;19554;42.652;23.364;2023-11-21T07:41:22;94440.09;;;7.86;65.44
33191;BME280;19554;42.652;23.364;2023-11-21T07:43:47;94423.81;;;7.98;64.84
33191;BME280;19554;42.652;23.364;2023-11-21T07:46:13;94399.66;;;7.45;65.62
33191;BME280;19554;42.652;23.364;2023-11-21T07:48:40;94404.91;;;7.60;65.22
33191;BME280;19554;42.652;23.364;2023-11-21T07:51:06;94429.16;;;7.93;65.33
33191;BME280;19554;42.652;23.364;2023-11-21T07:53:35;94431.19;;;8.06;65.45
33191;BME280;19554;42.652;23.364;2023-11-21T07:56:05;94412.03;;;7.70;65.67
33191;BME280;19554;42.652;23.364;2023-11-21T07:58:31;94383.25;;;7.32;66.31
33191;BME280;19554;42.652;23.364;2023-11-21T08:00:59;94417.19;;;7.46;67.15
33191;BME280;19554;42.652;23.364;2023-11-21T08:03:24;94419.81;;;7.51;67.74
33191;BME280;19554;42.652;23.364;2023-11-21T08:05:52;94415.41;;;7.80;66.96
33191;BME280;19554;42.652;23.364;2023-11-21T08:08:17;94411.97;;;7.80;66.68
33191;BME280;19554;42.652;23.364;2023-11-21T08:10:44;94406.78;;;8.04;65.61
33191;BME280;19554;42.652;23.364;2023-11-21T08:13:13;94403.53;;;8.12;65.30
33191;BME280;19554;42.652;23.364;2023-11-21T08:15:41;94391.47;;;7.86;65.93
33191;BME280;19554;42.652;23.364;2023-11-21T08:18:10;94353.03;;;7.73;65.84
33191;BME280;19554;42.652;23.364;2023-11-21T08:20:35;94403.38;;;8.32;64.79
33191;BME280;19554;42.652;23.364;2023-11-21T08:23:03;94404.38;;;8.07;65.33
33191;BME280;19554;42.652;23.364;2023-11-21T08:25:31;94418.44;;;8.08;65.74
33191;BME280;19554;42.652;23.364;2023-11-21T08:27:57;94398.75;;;8.09;65.82
33191;BME280;19554;42.652;23.364;2023-11-21T08:30:22;94392.97;;;8.02;66.07
33191;BME280;19554;42.652;23.364;2023-11-21T08:32:49;94407.03;;;8.07;65.80
33191;BME280;19554;42.652;23.364;2023-11-21T08:35:16;94403.59;;;8.02;66.23
33191;BME280;19554;42.652;23.364;2023-11-21T08:37:42;94419.84;;;7.95;66.61
33191;BME280;19554;42.652;23.364;2023-11-21T08:40:08;94396.75;;;7.91;66.38
33191;BME280;19554;42.652;23.364;2023-11-21T08:42:41;94395.38;;;7.98;66.24
33191;BME280;19554;42.652;23.364;2023-11-21T08:45:08;94411.50;;;7.68;67.33
33191;BME280;19554;42.652;23.364;2023-11-21T08:47:34;94398.41;;;7.81;67.15
33191;BME280;19554;42.652;23.364;2023-11-21T08:50:02;94402.00;;;8.01;66.94
33191;BME280;19554;42.652;23.364;2023-11-21T08:52:27;94402.41;;;7.79;66.36
33191;BME280;19554;42.652;23.364;2023-11-21T08:54:53;94403.81;;;7.61;67.08
33191;BME280;19554;42.652;23.364;2023-11-21T08:57:24;94387.38;;;7.59;66.75
33191;BME280;19554;42.652;23.364;2023-11-21T08:59:49;94388.25;;;7.89;66.59
33191;BME280;19554;42.652;23.364;2023-11-21T09:02:20;94387.28;;;7.74;67.15
33191;BME280;19554;42.652;23.364;2023-11-21T09:04:46;94377.84;;;7.97;66.59
33191;BME280;19554;42.652;23.364;2023-11-21T09:07:11;94374.41;;;8.31;65.26
33191;BME280;19554;42.652;23.364;2023-11-21T09:09:36;94353.16;;;8.31;65.01
33191;BME280;19554;42.652;23.364;2023-11-21T09:12:02;94321.66;;;8.14;64.50
33191;BME280;19554;42.652;23.364;2023-11-21T09:14:27;94339.25;;;8.05;65.84
33191;BME280;19554;42.652;23.364;2023-11-21T09:16:53;94310.47;;;8.12;65.85
33191;BME280;19554;42.652;23.364;2023-11-21T09:19:19;94341.63;;;8.41;65.29
33191;BME280;19554;42.652;23.364;2023-11-21T09:21:44;94334.53;;;8.60;64.85
33191;BME280;19554;42.652;23.364;2023-11-21T09:24:09;94325.13;;;8.44;65.14
33191;BME280;19554;42.652;23.364;2023-11-21T09:26:35;94326.06;;;8.58;65.17
33191;BME280;19554;42.652;23.364;2023-11-21T09:29:00;94317.47;;;8.66;65.15
33191;BME280;19554;42.652;23.364;2023-11-21T09:31:27;94320.75;;;8.82;64.53
33191;BME280;19554;42.652;23.364;2023-11-21T09:33:53;94288.34;;;8.51;65.39
33191;BME280;19554;42.652;23.364;2023-11-21T09:36:18;94272.88;;;8.58;64.97
33191;BME280;19554;42.652;23.364;2023-11-21T09:38:44;94282.19;;;8.80;64.69
33191;BME280;19554;42.652;23.364;2023-11-21T09:41:19;94239.78;;;8.64;63.85
33191;BME280;19554;42.652;23.364;2023-11-21T09:43:47;94198.03;;;8.41;64.09
33191;BME280;19554;42.652;23.364;2023-11-21T09:46:18;94271.91;;;8.92;64.10
33191;BME280;19554;42.652;23.364;2023-11-21T09:48:50;94280.06;;;9.00;64.39
33191;BME280;19554;42.652;23.364;2023-11-21T09:51:19;94273.28;;;9.13;63.94
33191;BME280;19554;42.652;23.364;2023-11-21T09:53:49;94264.50;;;9.32;62.78
33191;BME280;19554;42.652;23.364;2023-11-21T09:56:15;94253.63;;;9.28;63.07
33191;BME280;19554;42.652;23.364;2023-11-21T09:58:44;94236.56;;;9.10;64.03
33191;BME280;19554;42.652;23.364;2023-11-21T10:01:11;94171.66;;;8.68;63.84
33191;BME280;19554;42.652;23.364;2023-11-21T10:03:37;94230.03;;;9.02;63.95
33191;BME280;19554;42.652;23.364;2023-11-21T10:06:04;94211.66;;;9.01;63.79
33191;BME280;19554;42.652;23.364;2023-11-21T10:08:32;94219.44;;;9.16;63.88
33191;BME280;19554;42.652;23.364;2023-11-21T10:10:58;94146.19;;;9.00;63.24
33191;BME280;19554;42.652;23.364;2023-11-21T10:13:26;94222.41;;;9.66;62.49
33191;BME280;19554;42.652;23.364;2023-11-21T10:15:55;94222.84;;;9.73;62.07
33191;BME280;19554;42.652;23.364;2023-11-21T10:18:21;94221.69;;;9.80;61.69
33191;BME280;19554;42.652;23.364;2023-11-21T10:20:50;94218.16;;;9.98;61.36
33191;BME280;19554;42.652;23.364;2023-11-21T10:23:19;94153.88;;;9.53;61.05
33191;BME280;19554;42.652;23.364;2023-11-21T10:25:46;94209.50;;;10.06;60.54
33191;BME280;19554;42.652;23.364;2023-11-21T10:28:11;94203.72;;;9.85;60.20
33191;BME280;19554;42.652;23.364;2023-11-21T10:30:38;94197.44;;;9.95;60.51
33191;BME280;19554;42.652;23.364;2023-11-21T10:33:04;94197.28;;;10.05;60.48
33191;BME280;19554;42.652;23.364;2023-11-21T10:38:05;94201.22;;;10.21;60.02
33191;BME280;19554;42.652;23.364;2023-11-21T10:40:31;94124.63;;;9.81;59.54
33191;BME280;19554;42.652;23.364;2023-11-21T10:43:06;94185.66;;;10.29;58.85
33191;BME280;19554;42.652;23.364;2023-11-21T10:45:31;94186.81;;;10.23;59.03
33191;BME280;19554;42.652;23.364;2023-11-21T10:47:57;94191.19;;;10.32;59.08
33191;BME280;19554;42.652;23.364;2023-11-21T10:50:23;94175.44;;;10.17;58.57
33191;BME280;19554;42.652;23.364;2023-11-21T10:52:49;94186.41;;;10.15;59.14
33191;BME280;19554;42.652;23.364;2023-11-21T10:55:20;94179.09;;;10.07;59.41
33191;BME280;19554;42.652;23.364;2023-11-21T10:57:52;94174.16;;;10.14;59.16
33191;BME280;19554;42.652;23.364;2023-11-21T11:00:19;94174.16;;;10.14;58.77
33191;BME280;19554;42.652;23.364;2023-11-21T11:02:53;94178.47;;;9.96;59.51
33191;BME280;19554;42.652;23.364;2023-11-21T11:05:22;94169.53;;;9.73;60.33
33191;BME280;19554;42.652;23.364;2023-11-21T11:07:50;94167.22;;;9.86;60.29
33191;BME280;19554;42.652;23.364;2023-11-21T11:10:21;94167.38;;;9.76;60.37
33191;BME280;19554;42.652;23.364;2023-11-21T11:12:48;94147.31;;;9.64;60.31
33191;BME280;19554;42.652;23.364;2023-11-21T11:15:16;94146.53;;;9.78;59.48
33191;BME280;19554;42.652;23.364;2023-11-21T11:17:42;94160.72;;;9.92;59.47
33191;BME280;19554;42.652;23.364;2023-11-21T11:20:12;94148.63;;;9.81;59.66
33191;BME280;19554;42.652;23.364;2023-11-21T11:22:46;94073.75;;;9.49;59.35
33191;BME280;19554;42.652;23.364;2023-11-21T11:28:18;94121.13;;;9.99;59.00
33191;BME280;19554;42.652;23.364;2023-11-21T11:33:41;94124.38;;;9.96;59.36
33191;BME280;19554;42.652;23.364;2023-11-21T11:38:34;94113.13;;;9.99;59.75
33191;BME280;19554;42.652;23.364;2023-11-21T11:41:05;94112.94;;;10.09;59.53
33191;BME280;19554;42.652;23.364;2023-11-21T11:43:31;94092.56;;;10.00;59.10
33191;BME280;19554;42.652;23.364;2023-11-21T11:46:09;94106.19;;;9.98;59.36
33191;BME280;19554;42.652;23.364;2023-11-21T11:48:39;94038.44;;;9.44;60.06
33191;BME280;19554;42.652;23.364;2023-11-21T11:51:15;94128.34;;;9.99;60.45
33191;BME280;19554;42.652;23.364;2023-11-21T11:53:43;94129.19;;;9.94;60.60
33191;BME280;19554;42.652;23.364;2023-11-21T11:58:59;94129.31;;;10.03;60.62
33191;BME280;19554;42.652;23.364;2023-11-21T12:01:26;94120.34;;;9.99;60.35
33191;BME280;19554;42.652;23.364;2023-11-21T12:07:02;94119.03;;;9.82;61.31
33191;BME280;19554;42.652;23.364;2023-11-21T12:09:28;94118.81;;;9.79;61.78
33191;BME280;19554;42.652;23.364;2023-11-21T12:11:55;94126.91;;;9.73;62.33
33191;BME280;19554;42.652;23.364;2023-11-21T12:14:23;94118.41;;;9.71;63.75
33191;BME280;19554;42.652;23.364;2023-11-21T12:16:49;94075.81;;;9.39;64.07
33191;BME280;19554;42.652;23.364;2023-11-21T12:19:15;94105.16;;;9.66;65.11
33191;BME280;19554;42.652;23.364;2023-11-21T12:21:40;94124.34;;;9.82;65.66
33191;BME280;19554;42.652;23.364;2023-11-21T12:24:07;94136.97;;;9.77;66.29
33191;BME280;19554;42.652;23.364;2023-11-21T12:26:34;94090.47;;;9.55;65.72
33191;BME280;19554;42.652;23.364;2023-11-21T12:29:01;94077.31;;;9.45;65.49
33191;BME280;19554;42.652;23.364;2023-11-21T12:31:30;94119.47;;;9.70;65.68
33191;BME280;19554;42.652;23.364;2023-11-21T12:33:56;94121.75;;;9.63;65.72
33191;BME280;19554;42.652;23.364;2023-11-21T12:36:22;94128.84;;;9.54;65.52
33191;BME280;19554;42.652;23.364;2023-11-21T12:38:48;94114.59;;;9.45;66.07
33191;BME280;19554;42.652;23.364;2023-11-21T12:41:15;94132.16;;;9.46;66.73
33191;BME280;19554;42.652;23.364;2023-11-21T12:43:42;94108.69;;;9.48;66.75
33191;BME280;19554;42.652;23.364;2023-11-21T12:46:10;94097.06;;;9.44;67.16
33191;BME280;19554;42.652;23.364;2023-11-21T12:48:42;94124.50;;;9.58;67.81
33191;BME280;19554;42.652;23.364;2023-11-21T12:51:09;94107.13;;;9.47;67.02
33191;BME280;19554;42.652;23.364;2023-11-21T12:53:39;94094.47;;;9.39;66.31
33191;BME280;19554;42.652;23.364;2023-11-21T12:56:12;94105.53;;;9.46;66.90
33191;BME280;19554;42.652;23.364;2023-11-21T12:58:38;94084.13;;;9.37;66.44
33191;BME280;19554;42.652;23.364;2023-11-21T13:01:07;94074.38;;;9.14;68.37
33191;BME280;19554;42.652;23.364;2023-11-21T13:03:40;94078.25;;;9.21;68.67
33191;BME280;19554;42.652;23.364;2023-11-21T13:06:06;94083.78;;;9.25;69.41
33191;BME280;19554;42.652;23.364;2023-11-21T13:08:33;94076.94;;;9.19;69.90
33191;BME280;19554;42.652;23.364;2023-11-21T13:10:59;94066.75;;;9.07;70.20
33191;BME280;19554;42.652;23.364;2023-11-21T13:13:28;94067.75;;;9.11;70.10